createdAt,value
2023-03-22T00:02:04.396Z,34.72
2023-03-22T00:04:31.330Z,32.30
2023-03-22T00:06:58.083Z,34.30
2023-03-22T00:09:24.861Z,35.08
2023-03-22T00:11:51.666Z,32.80
2023-03-22T00:14:18.629Z,32.47
2023-03-22T00:16:45.415Z,35.10
2023-03-22T00:19:12.444Z,31.50
2023-03-22T00:21:39.276Z,32.08
2023-03-22T00:24:06.344Z,34.85
2023-03-22T00:26:33.138Z,33.17
2023-03-22T00:29:00.351Z,34.15
2023-03-22T00:31:27.204Z,35.50
2023-03-22T00:33:54.024Z,33.78
2023-03-22T00:36:20.858Z,34.92
2023-03-22T00:38:48.073Z,34.55
2023-03-22T00:41:16.361Z,33.72
2023-03-22T00:43:44.125Z,33.05
2023-03-22T00:46:12.212Z,34.42
2023-03-22T00:48:39.695Z,34.85
2023-03-22T00:51:07.466Z,33.85
2023-03-22T00:53:34.662Z,33.25
2023-03-22T00:56:01.435Z,33.45
2023-03-22T00:58:28.288Z,31.50
2023-03-22T01:00:55.619Z,33.83
2023-03-22T01:03:22.736Z,31.77
2023-03-22T01:05:49.518Z,32.08
2023-03-22T01:08:16.859Z,33.05
2023-03-22T01:10:44.484Z,31.20
2023-03-22T01:13:12.413Z,32.65
2023-03-22T01:15:39.626Z,33.25
2023-03-22T01:18:06.458Z,33.58
2023-03-22T01:20:33.389Z,35.45
2023-03-22T01:23:00.264Z,35.17
2023-03-22T01:25:27.143Z,33.63
2023-03-22T01:27:54.056Z,33.33
2023-03-22T01:30:20.949Z,32.80
2023-03-22T01:32:47.943Z,33.97
2023-03-22T01:35:14.684Z,34.42
2023-03-22T01:37:41.495Z,34.03
2023-03-22T01:40:10.171Z,34.55
2023-03-22T01:42:37.036Z,34.47
2023-03-22T01:45:15.941Z,34.72
2023-03-22T01:47:55.168Z,35.47
2023-03-22T01:50:23.037Z,36.10
2023-03-22T01:52:51.118Z,36.05
2023-03-22T01:55:17.907Z,37.47
2023-03-22T01:57:45.558Z,35.05
2023-03-22T02:00:13.643Z,37.78
2023-03-22T02:02:40.707Z,36.05
2023-03-22T02:05:07.915Z,37.20
2023-03-22T02:07:36.137Z,35.03
2023-03-22T02:10:03.546Z,35.83
2023-03-22T02:12:51.400Z,36.92
2023-03-22T02:15:29.978Z,33.83
2023-03-22T02:17:56.722Z,33.08
2023-03-22T02:20:44.864Z,31.98
2023-03-22T02:23:52.537Z,30.73
2023-03-22T02:26:53.944Z,31.92
2023-03-22T02:29:25.312Z,31.33
2023-03-22T02:32:12.897Z,31.00
2023-03-22T02:34:45.018Z,30.75
2023-03-22T02:37:30.199Z,29.45
2023-03-22T02:42:27.274Z,31.02
2023-03-22T02:45:16.936Z,31.02
2023-03-22T02:47:55.339Z,30.83
2023-03-22T02:50:27.110Z,31.05
2023-03-22T02:52:57.202Z,31.08
2023-03-22T02:55:52.162Z,32.53
2023-03-22T02:58:46.359Z,30.30
2023-03-22T03:01:23.547Z,31.25
2023-03-22T03:03:52.514Z,30.02
2023-03-22T03:06:22.386Z,30.35
2023-03-22T03:08:50.062Z,30.80
2023-03-22T03:11:17.121Z,31.38
2023-03-22T03:13:47.448Z,33.58
2023-03-22T03:16:15.999Z,33.10
2023-03-22T03:19:00.465Z,34.20
2023-03-22T03:21:36.370Z,33.78
2023-03-22T03:24:15.476Z,34.28
2023-03-22T03:27:21.258Z,34.92
2023-03-22T03:29:48.143Z,35.20
2023-03-22T03:32:28.273Z,35.10
2023-03-22T03:35:06.652Z,34.67
2023-03-22T03:37:48.167Z,34.53
2023-03-22T03:40:19.272Z,35.03
2023-03-22T03:42:51.618Z,33.28
2023-03-22T03:45:19.624Z,31.45
2023-03-22T03:47:48.266Z,30.73
2023-03-22T03:50:16.512Z,31.50
2023-03-22T03:52:43.335Z,32.30
2023-03-22T03:55:10.340Z,31.52
2023-03-22T03:57:37.042Z,30.02
2023-03-22T04:00:05.531Z,29.85
2023-03-22T04:02:32.339Z,28.98
2023-03-22T04:04:59.237Z,29.38
2023-03-22T04:07:26.197Z,28.10
2023-03-22T04:09:52.975Z,27.33
2023-03-22T04:12:19.704Z,29.88
2023-03-22T04:14:46.394Z,29.88
2023-03-22T04:17:13.063Z,28.88
2023-03-22T04:19:39.913Z,28.20
2023-03-22T04:22:06.638Z,27.88
2023-03-22T04:24:33.488Z,27.52
2023-03-22T04:27:00.249Z,27.42
2023-03-22T04:29:26.908Z,27.08
2023-03-22T04:31:53.697Z,27.15
2023-03-22T04:34:20.425Z,28.40
2023-03-22T04:36:47.125Z,26.38
2023-03-22T04:39:13.849Z,26.95
2023-03-22T04:41:40.705Z,27.48
2023-03-22T04:44:07.757Z,26.63
2023-03-22T04:46:36.679Z,25.08
2023-03-22T04:49:05.245Z,26.88
2023-03-22T04:51:31.989Z,26.35
2023-03-22T04:53:59.200Z,27.30
2023-03-22T04:56:26.021Z,26.85
2023-03-22T04:58:53.150Z,28.17
2023-03-22T05:01:20.097Z,27.15
2023-03-22T05:03:46.961Z,27.45
2023-03-22T05:06:14.347Z,28.67
2023-03-22T05:08:41.571Z,28.27
2023-03-22T05:11:13.274Z,28.75
2023-03-22T05:13:40.375Z,28.55
2023-03-22T05:16:10.127Z,27.88
2023-03-22T05:18:37.061Z,28.38
2023-03-22T05:21:04.270Z,27.27
2023-03-22T05:23:31.052Z,27.40
2023-03-22T05:25:58.013Z,27.85
2023-03-22T05:28:25.645Z,28.13
2023-03-22T05:30:54.278Z,27.50
2023-03-22T05:33:22.104Z,27.58
2023-03-22T05:35:49.743Z,27.50
2023-03-22T05:38:17.372Z,27.42
2023-03-22T05:40:44.706Z,28.33
2023-03-22T05:43:14.404Z,28.40
2023-03-22T05:45:41.135Z,28.27
2023-03-22T05:48:08.213Z,28.25
2023-03-22T05:50:36.665Z,26.92
2023-03-22T05:53:03.710Z,27.02
2023-03-22T05:55:31.807Z,27.52
2023-03-22T05:58:00.029Z,27.27
2023-03-22T06:00:27.324Z,28.55
2023-03-22T06:02:54.310Z,28.90
2023-03-22T06:05:21.204Z,28.90
2023-03-22T06:07:48.039Z,27.80
2023-03-22T06:10:15.679Z,28.25
2023-03-22T06:12:42.447Z,29.33
2023-03-22T06:15:10.154Z,28.75
2023-03-22T06:17:36.965Z,29.20
2023-03-22T06:20:05.857Z,33.10
2023-03-22T06:22:32.601Z,30.80
2023-03-22T06:24:59.356Z,30.13
2023-03-22T06:27:26.080Z,28.48
2023-03-22T06:29:52.848Z,31.48
2023-03-22T06:32:21.844Z,28.65
2023-03-22T06:34:48.734Z,28.40
2023-03-22T06:37:15.575Z,29.35
2023-03-22T06:39:43.169Z,29.40
2023-03-22T06:42:12.735Z,28.17
2023-03-22T06:44:39.541Z,29.60
2023-03-22T06:47:06.422Z,28.73
2023-03-22T06:49:33.241Z,27.90
2023-03-22T06:52:00.111Z,27.88
2023-03-22T06:54:26.893Z,29.10
2023-03-22T06:56:53.783Z,28.40
2023-03-22T06:59:20.602Z,27.95
2023-03-22T07:01:47.506Z,28.58
2023-03-22T07:04:14.685Z,27.95
2023-03-22T07:06:41.570Z,27.35
2023-03-22T07:09:09.677Z,28.08
2023-03-22T07:11:36.815Z,27.15
2023-03-22T07:14:04.320Z,27.23
2023-03-22T07:16:31.240Z,28.25
2023-03-22T07:19:01.247Z,26.42
2023-03-22T07:21:28.353Z,28.10
2023-03-22T07:23:55.659Z,26.33
2023-03-22T07:26:23.210Z,26.25
2023-03-22T07:28:50.467Z,27.92
2023-03-22T07:31:24.225Z,27.05
2023-03-22T07:33:51.284Z,25.80
2023-03-22T07:36:19.492Z,27.73
2023-03-22T07:38:47.340Z,24.88
2023-03-22T07:41:14.298Z,25.90
2023-03-22T07:43:53.992Z,25.83
2023-03-22T07:46:23.839Z,24.35
2023-03-22T07:48:50.840Z,24.40
2023-03-22T07:51:20.625Z,25.63
2023-03-22T07:53:48.522Z,24.75
2023-03-22T07:56:17.815Z,25.80
2023-03-22T07:58:47.786Z,24.65
2023-03-22T08:01:15.613Z,23.23
2023-03-22T08:03:55.629Z,22.35
2023-03-22T08:06:28.820Z,23.00
2023-03-22T08:08:56.702Z,23.02
2023-03-22T08:11:27.069Z,22.65
2023-03-22T08:13:57.578Z,21.30
2023-03-22T08:16:24.523Z,21.52
2023-03-22T08:18:52.787Z,20.50
2023-03-22T08:21:24.050Z,20.67
2023-03-22T08:23:51.239Z,19.70
2023-03-22T08:26:19.028Z,19.23
2023-03-22T08:28:47.912Z,18.90
2023-03-22T08:31:22.123Z,19.38
2023-03-22T08:33:49.873Z,18.83
2023-03-22T08:36:22.010Z,18.60
2023-03-22T08:38:49.782Z,18.67
2023-03-22T08:41:18.105Z,17.52
2023-03-22T08:43:49.221Z,17.85
2023-03-22T08:46:16.566Z,17.83
2023-03-22T08:48:45.011Z,16.20
2023-03-22T08:53:51.867Z,15.48
2023-03-22T08:56:20.428Z,16.80
2023-03-22T08:58:47.531Z,16.98
2023-03-22T09:01:16.485Z,16.77
2023-03-22T09:03:46.417Z,16.70
2023-03-22T09:06:14.854Z,15.32
2023-03-22T09:08:57.980Z,15.18
2023-03-22T09:13:54.543Z,15.20
2023-03-22T09:16:28.214Z,14.63
2023-03-22T09:19:14.388Z,14.98
2023-03-22T09:21:50.544Z,15.07
2023-03-22T09:24:22.439Z,14.70
2023-03-22T09:26:54.645Z,14.10
2023-03-22T09:29:22.077Z,14.57
2023-03-22T09:31:52.475Z,13.98
2023-03-22T09:34:31.066Z,14.25
2023-03-22T09:37:06.526Z,13.85
2023-03-22T09:39:39.925Z,14.10
2023-03-22T09:42:45.901Z,13.40
2023-03-22T09:45:41.676Z,13.85
2023-03-22T09:48:29.545Z,13.15
2023-03-22T09:51:01.166Z,12.48
2023-03-22T09:53:29.531Z,12.80
2023-03-22T09:56:13.679Z,13.13
2023-03-22T09:59:05.791Z,12.68
2023-03-22T10:01:41.954Z,12.88
2023-03-22T10:07:34.044Z,11.50
2023-03-22T10:10:23.869Z,12.00
2023-03-22T10:13:14.647Z,11.77
2023-03-22T10:15:50.754Z,11.43
2023-03-22T10:18:26.224Z,11.30
2023-03-22T10:21:04.323Z,11.05
2023-03-22T10:23:45.972Z,12.05
2023-03-22T10:26:28.174Z,10.35
2023-03-22T10:29:17.624Z,11.35
2023-03-22T10:34:40.715Z,10.70
2023-03-22T10:37:16.442Z,10.77
2023-03-22T10:39:55.174Z,10.65
2023-03-22T10:42:30.940Z,10.00
2023-03-22T10:45:21.125Z,21.30
2023-03-22T10:48:10.193Z,9.80
2023-03-22T10:50:41.528Z,9.85
2023-03-22T10:53:39.438Z,10.20
2023-03-22T10:56:21.284Z,9.23
2023-03-22T11:05:35.245Z,8.90
2023-03-22T11:08:48.479Z,8.77
2023-03-22T11:11:39.059Z,8.40
2023-03-22T11:14:15.349Z,7.28
2023-03-22T11:17:03.158Z,6.80
2023-03-22T11:20:20.110Z,7.25
2023-03-22T11:22:54.605Z,8.25
2023-03-22T11:25:33.676Z,8.23
2023-03-22T11:28:22.159Z,7.78
2023-03-22T11:31:00.998Z,7.53
2023-03-22T11:33:33.978Z,8.40
2023-03-22T11:36:15.465Z,7.75
2023-03-22T11:38:42.716Z,7.15
2023-03-22T11:41:37.341Z,8.23
2023-03-22T11:44:14.445Z,7.78
2023-03-22T11:46:56.894Z,5.78
2023-03-22T11:49:27.491Z,5.72
2023-03-22T11:52:14.806Z,5.85
2023-03-22T11:54:42.808Z,4.82
2023-03-22T11:57:21.467Z,5.57
2023-03-22T12:00:12.297Z,4.93
2023-03-22T12:02:49.119Z,5.13
2023-03-22T12:05:27.389Z,5.00
2023-03-22T12:08:16.935Z,5.35
2023-03-22T12:10:53.709Z,5.20
2023-03-22T12:16:00.860Z,5.85
2023-03-22T12:18:56.526Z,5.45
2023-03-22T12:21:23.571Z,6.28
2023-03-22T12:23:50.562Z,5.07
2023-03-22T12:26:26.639Z,5.47
2023-03-22T12:29:01.765Z,4.68
2023-03-22T12:31:44.185Z,5.25
2023-03-22T12:34:24.826Z,5.53
2023-03-22T12:36:56.496Z,5.30
2023-03-22T12:39:29.570Z,5.18
2023-03-22T12:42:01.707Z,5.85
2023-03-22T12:44:38.828Z,5.57
2023-03-22T12:47:17.088Z,6.10
2023-03-22T12:49:56.770Z,5.30
2023-03-22T12:52:45.454Z,5.35
2023-03-22T12:55:39.329Z,5.60
2023-03-22T12:58:08.539Z,5.38
2023-03-22T13:00:52.620Z,5.03
2023-03-22T13:03:28.100Z,5.32
2023-03-22T13:06:07.785Z,5.10
2023-03-22T13:09:17.232Z,4.47
2023-03-22T13:12:25.453Z,3.78
2023-03-22T13:15:02.209Z,3.40
2023-03-22T13:17:29.264Z,3.83
2023-03-22T13:20:06.895Z,3.70
2023-03-22T13:22:47.789Z,3.53
2023-03-22T13:25:42.326Z,3.05
2023-03-22T13:28:38.447Z,2.60
2023-03-22T13:31:51.843Z,2.60
2023-03-22T13:34:39.060Z,2.75
2023-03-22T13:37:29.804Z,2.50
2023-03-22T13:40:00.601Z,2.92
2023-03-22T13:42:43.279Z,3.00
2023-03-22T13:45:33.847Z,2.50
2023-03-22T13:48:28.052Z,2.88
2023-03-22T13:50:56.255Z,2.80
2023-03-22T13:53:30.647Z,3.22
2023-03-22T13:56:04.626Z,2.75
2023-03-22T13:58:50.158Z,2.97
2023-03-22T14:01:41.750Z,3.38
2023-03-22T14:04:21.272Z,3.05
2023-03-22T14:07:10.596Z,3.00
2023-03-22T14:09:49.610Z,2.80
2023-03-22T14:12:24.861Z,3.38
2023-03-22T14:15:01.874Z,3.20
2023-03-22T14:18:01.029Z,3.22
2023-03-22T14:20:34.434Z,3.03
